createdAt,value
2022-10-30T00:01:00.571Z,89.70
2022-10-30T00:04:03.543Z,90.00
2022-10-30T00:07:06.433Z,89.90
2022-10-30T00:10:10.285Z,89.80
2022-10-30T00:13:14.506Z,89.60
2022-10-30T00:16:18.737Z,89.80
2022-10-30T00:19:21.619Z,90.30
2022-10-30T00:22:24.479Z,90.00
2022-10-30T00:25:27.413Z,90.00
2022-10-30T00:28:30.275Z,90.00
2022-10-30T00:31:34.631Z,89.90
2022-10-30T00:34:37.592Z,90.00
2022-10-30T00:37:40.696Z,89.90
2022-10-30T00:40:43.550Z,90.00
2022-10-30T00:43:46.605Z,89.80
2022-10-30T00:46:50.979Z,90.10
2022-10-30T00:49:59.380Z,90.00
2022-10-30T00:53:06.540Z,90.00
2022-10-30T00:56:12.171Z,89.90
2022-10-30T00:59:18.468Z,90.00
2022-10-30T01:02:23.361Z,90.40
2022-10-30T01:05:29.704Z,90.00
2022-10-30T01:08:32.968Z,90.20
2022-10-30T01:11:36.028Z,90.10
2022-10-30T01:14:43.825Z,90.10
2022-10-30T01:18:13.303Z,89.80
2022-10-30T01:21:35.665Z,89.90
2022-10-30T01:24:50.747Z,90.20
2022-10-30T01:28:03.271Z,90.30
2022-10-30T01:31:17.651Z,90.30
2022-10-30T01:34:28.464Z,90.20
2022-10-30T01:37:37.577Z,90.80
2022-10-30T01:40:40.485Z,91.40
2022-10-30T01:43:45.745Z,91.40
2022-10-30T01:47:04.970Z,91.20
2022-10-30T01:50:21.660Z,91.10
2022-10-30T01:53:38.966Z,91.10
2022-10-30T01:57:00.480Z,91.20
2022-10-30T02:00:06.533Z,91.20
2022-10-30T02:03:09.571Z,91.20
2022-10-30T02:06:13.859Z,91.10
2022-10-30T02:09:17.214Z,90.90
2022-10-30T02:12:20.638Z,91.00
2022-10-30T02:15:23.914Z,90.90
2022-10-30T02:18:26.934Z,90.90
2022-10-30T02:21:31.339Z,90.90
2022-10-30T02:24:34.650Z,90.80
2022-10-30T02:27:37.596Z,90.80
2022-10-30T02:30:44.013Z,90.80
2022-10-30T02:33:47.908Z,90.90
2022-10-30T02:36:52.128Z,90.60
2022-10-30T02:39:55.040Z,90.90
2022-10-30T02:42:57.964Z,91.00
2022-10-30T02:46:00.859Z,90.90
2022-10-30T02:49:03.847Z,90.80
2022-10-30T02:52:09.766Z,91.10
2022-10-30T02:55:12.650Z,91.10
2022-10-30T02:58:15.772Z,91.50
2022-10-30T03:01:20.678Z,91.30
2022-10-30T03:04:23.619Z,91.90
2022-10-30T03:07:27.919Z,92.20
2022-10-30T03:10:30.838Z,92.20
2022-10-30T03:13:35.179Z,92.60
2022-10-30T03:16:38.443Z,92.40
2022-10-30T03:19:41.782Z,92.40
2022-10-30T03:22:46.286Z,92.30
2022-10-30T03:25:49.180Z,91.90
2022-10-30T03:28:52.110Z,91.90
2022-10-30T03:31:55.058Z,91.80
2022-10-30T03:34:57.935Z,91.70
2022-10-30T03:38:02.192Z,91.90
2022-10-30T03:41:05.625Z,91.70
2022-10-30T03:44:08.734Z,91.80
2022-10-30T03:50:19.402Z,91.60
2022-10-30T03:53:26.085Z,91.90
2022-10-30T03:56:29.194Z,91.80
2022-10-30T03:59:32.067Z,91.90
2022-10-30T04:02:35.135Z,91.70
2022-10-30T04:05:38.648Z,91.80
2022-10-30T04:08:43.063Z,91.70
2022-10-30T04:11:45.956Z,91.70
2022-10-30T04:14:48.835Z,91.50
2022-10-30T04:17:52.341Z,91.60
2022-10-30T04:20:55.547Z,91.60
2022-10-30T04:23:59.771Z,91.60
2022-10-30T04:27:02.631Z,91.70
2022-10-30T04:30:06.490Z,91.50
2022-10-30T04:33:12.515Z,91.50
2022-10-30T04:36:17.846Z,91.60
2022-10-30T04:39:22.387Z,91.50
2022-10-30T04:42:25.273Z,91.60
2022-10-30T04:45:28.156Z,91.70
2022-10-30T04:48:31.027Z,91.70
2022-10-30T04:51:33.950Z,91.60
2022-10-30T04:54:38.300Z,91.60
2022-10-30T04:57:41.200Z,91.70
2022-10-30T05:00:44.101Z,91.60
2022-10-30T05:03:49.319Z,91.70
2022-10-30T05:06:54.964Z,91.60
2022-10-30T05:09:59.267Z,91.60
2022-10-30T05:13:03.571Z,91.70
2022-10-30T05:16:07.103Z,91.50
2022-10-30T05:19:10.083Z,91.50
2022-10-30T05:22:12.962Z,91.40
2022-10-30T05:25:17.317Z,91.40
2022-10-30T05:28:20.245Z,91.50
2022-10-30T05:31:23.409Z,91.70
2022-10-30T05:34:26.291Z,91.90
2022-10-30T05:37:29.366Z,91.60
2022-10-30T05:40:34.141Z,91.30
2022-10-30T05:43:37.313Z,91.50
2022-10-30T05:46:40.175Z,91.60
2022-10-30T05:49:43.052Z,91.70
2022-10-30T05:52:45.925Z,91.80
2022-10-30T05:55:50.193Z,91.70
2022-10-30T05:58:53.075Z,91.60
2022-10-30T06:01:56.810Z,91.80
2022-10-30T06:04:59.990Z,91.90
2022-10-30T06:08:03.522Z,91.70
2022-10-30T06:11:07.744Z,91.80
2022-10-30T06:14:10.602Z,91.80
2022-10-30T06:17:13.501Z,92.20
2022-10-30T06:20:16.607Z,92.50
2022-10-30T06:23:19.721Z,92.10
2022-10-30T06:26:23.999Z,92.10
2022-10-30T06:29:26.883Z,92.50
2022-10-30T06:32:29.759Z,92.50
2022-10-30T06:35:33.360Z,92.50
2022-10-30T06:38:36.243Z,93.00
2022-10-30T06:41:40.527Z,93.30
2022-10-30T06:44:43.395Z,93.40
2022-10-30T06:47:47.051Z,93.40
2022-10-30T06:50:55.458Z,93.60
2022-10-30T06:53:58.430Z,93.70
2022-10-30T06:57:02.924Z,93.80
2022-10-30T07:00:07.917Z,94.10
2022-10-30T07:03:10.793Z,94.10
2022-10-30T07:06:13.659Z,94.70
2022-10-30T07:09:16.579Z,94.70
2022-10-30T07:12:20.811Z,94.70
2022-10-30T07:15:24.674Z,94.70
2022-10-30T07:18:27.559Z,94.70
2022-10-30T07:21:30.542Z,94.90
2022-10-30T07:24:33.562Z,95.20
2022-10-30T07:27:44.703Z,95.00
2022-10-30T07:30:47.579Z,94.90
2022-10-30T07:33:50.447Z,94.90
2022-10-30T07:36:53.299Z,95.00
2022-10-30T07:39:56.199Z,94.60
2022-10-30T07:43:02.267Z,94.80
2022-10-30T07:46:05.740Z,94.90
2022-10-30T07:49:08.726Z,94.70
2022-10-30T07:52:16.254Z,94.20
2022-10-30T07:55:20.515Z,94.20
2022-10-30T07:58:24.929Z,93.90
2022-10-30T08:01:27.926Z,93.80
2022-10-30T08:04:30.936Z,94.40
2022-10-30T08:07:34.932Z,94.50
2022-10-30T08:10:38.437Z,94.40
2022-10-30T08:13:42.706Z,94.90
2022-10-30T08:16:45.582Z,94.20
2022-10-30T08:19:48.618Z,93.80
2022-10-30T08:22:53.160Z,93.70
2022-10-30T08:26:00.223Z,93.50
2022-10-30T08:29:04.491Z,93.40
2022-10-30T08:32:07.405Z,93.00
2022-10-30T08:35:12.593Z,92.30
2022-10-30T08:38:17.805Z,92.10
2022-10-30T08:41:21.034Z,92.00
2022-10-30T08:44:25.338Z,92.40
2022-10-30T08:47:28.470Z,92.20
2022-10-30T08:50:32.066Z,91.80
2022-10-30T08:53:35.049Z,91.60
2022-10-30T08:56:37.905Z,91.00
2022-10-30T08:59:42.135Z,90.80
2022-10-30T09:02:45.489Z,90.70
2022-10-30T09:05:48.523Z,91.00
2022-10-30T09:08:51.447Z,91.10
2022-10-30T09:11:54.399Z,90.50
2022-10-30T09:14:58.773Z,90.50
2022-10-30T09:18:03.337Z,90.30
2022-10-30T09:21:06.704Z,88.90
2022-10-30T09:24:09.727Z,89.30
2022-10-30T09:27:12.579Z,88.00
2022-10-30T09:30:16.883Z,87.70
2022-10-30T09:33:19.934Z,84.80
2022-10-30T09:36:22.826Z,83.30
2022-10-30T09:39:26.671Z,82.20
2022-10-30T09:42:43.610Z,81.70
2022-10-30T09:46:10.175Z,80.60
2022-10-30T09:49:28.164Z,79.40
2022-10-30T09:52:36.599Z,80.10
2022-10-30T09:55:46.163Z,80.00
2022-10-30T09:59:03.026Z,79.90
2022-10-30T10:02:22.276Z,80.70
2022-10-30T10:05:29.360Z,78.00
2022-10-30T10:08:38.744Z,77.70
2022-10-30T10:11:47.099Z,77.60
2022-10-30T10:14:50.498Z,80.90
2022-10-30T10:17:56.292Z,78.40
2022-10-30T10:21:05.909Z,76.60
2022-10-30T10:24:19.652Z,76.60
2022-10-30T10:27:38.182Z,74.00
2022-10-30T10:30:51.471Z,73.70
2022-10-30T10:34:10.535Z,73.60
2022-10-30T10:37:24.993Z,70.80
2022-10-30T10:40:42.053Z,71.70
2022-10-30T10:44:00.902Z,69.40
2022-10-30T10:47:18.173Z,70.40
2022-10-30T10:50:30.353Z,71.00
2022-10-30T10:53:47.352Z,72.10
2022-10-30T10:56:55.202Z,72.20
2022-10-30T11:00:02.994Z,75.00
2022-10-30T11:03:11.677Z,73.70
2022-10-30T11:06:22.143Z,73.30
2022-10-30T11:09:27.334Z,75.10
2022-10-30T11:12:35.446Z,76.10
2022-10-30T11:15:48.653Z,75.60
2022-10-30T11:18:56.874Z,73.70
2022-10-30T11:22:03.179Z,73.30
2022-10-30T11:25:25.307Z,68.90
2022-10-30T11:28:46.519Z,70.10
2022-10-30T11:32:02.731Z,69.50
2022-10-30T11:35:14.062Z,69.60
2022-10-30T11:38:21.411Z,68.10
2022-10-30T11:41:24.639Z,68.90
2022-10-30T11:44:31.951Z,67.60
2022-10-30T11:47:37.301Z,69.00
2022-10-30T11:50:48.429Z,69.20
2022-10-30T11:53:52.815Z,70.70
2022-10-30T11:56:57.024Z,70.80
2022-10-30T12:00:04.977Z,69.20
2022-10-30T12:03:29.009Z,68.10
2022-10-30T12:06:32.088Z,67.00
2022-10-30T12:09:44.233Z,67.10
2022-10-30T12:12:52.476Z,66.90
2022-10-30T12:16:11.010Z,66.80
2022-10-30T12:19:15.836Z,67.20
2022-10-30T12:22:33.279Z,63.10
2022-10-30T12:25:38.417Z,64.20
2022-10-30T12:28:42.804Z,61.50
2022-10-30T12:31:50.971Z,60.20
2022-10-30T12:35:01.360Z,59.60
2022-10-30T12:38:07.291Z,59.90
2022-10-30T12:41:17.400Z,58.40
2022-10-30T12:44:25.015Z,60.10
2022-10-30T12:47:33.736Z,56.70
2022-10-30T12:50:43.338Z,57.30
2022-10-30T12:53:52.163Z,56.20
2022-10-30T12:57:04.040Z,56.60
2022-10-30T13:00:14.486Z,55.20
2022-10-30T13:03:28.494Z,55.10
2022-10-30T13:06:37.727Z,55.60
2022-10-30T13:09:49.470Z,55.10
2022-10-30T13:12:58.994Z,54.50
2022-10-30T13:16:04.466Z,55.50
2022-10-30T13:19:12.091Z,55.40
2022-10-30T13:22:21.476Z,56.60
2022-10-30T13:25:34.879Z,56.40
2022-10-30T13:28:48.386Z,55.20
2022-10-30T13:32:05.099Z,54.60
2022-10-30T13:35:23.028Z,55.20
2022-10-30T13:38:45.859Z,54.50
2022-10-30T13:42:05.582Z,55.60
2022-10-30T13:45:34.149Z,55.10
2022-10-30T13:49:02.432Z,53.30
2022-10-30T13:52:13.030Z,54.10
2022-10-30T13:55:23.112Z,54.00
2022-10-30T13:58:31.051Z,52.30
2022-10-30T14:01:40.219Z,55.10
2022-10-30T14:04:51.093Z,54.20
2022-10-30T14:08:03.624Z,54.10
2022-10-30T14:11:13.727Z,53.40
2022-10-30T14:14:30.060Z,55.00
2022-10-30T14:17:34.354Z,56.50
2022-10-30T14:20:37.300Z,56.20
2022-10-30T14:23:40.199Z,57.70
2022-10-30T14:26:52.599Z,55.70
2022-10-30T14:29:56.476Z,57.50
2022-10-30T14:33:01.112Z,57.60
2022-10-30T14:36:49.719Z,58.10
2022-10-30T14:39:53.294Z,57.90
2022-10-30T14:43:03.476Z,58.90
2022-10-30T14:46:16.445Z,59.30
2022-10-30T14:49:44.844Z,60.40
2022-10-30T14:53:02.044Z,63.20
2022-10-30T14:56:09.805Z,62.40
2022-10-30T14:59:25.371Z,64.60
2022-10-30T15:02:38.678Z,65.10
2022-10-30T15:05:52.349Z,66.00
2022-10-30T15:09:23.899Z,66.30
2022-10-30T15:12:50.602Z,67.00
2022-10-30T15:15:59.233Z,68.60
2022-10-30T15:19:05.440Z,69.10
2022-10-30T15:22:18.958Z,69.10
2022-10-30T15:25:24.575Z,69.10
2022-10-30T15:28:29.441Z,69.40
2022-10-30T15:31:33.333Z,70.60
2022-10-30T15:34:36.260Z,71.20
2022-10-30T15:37:40.537Z,71.50
2022-10-30T15:40:43.530Z,70.30
2022-10-30T15:43:46.700Z,71.00
2022-10-30T15:46:52.079Z,71.60
2022-10-30T15:49:57.053Z,72.00
2022-10-30T15:53:02.131Z,72.40
2022-10-30T15:56:09.090Z,72.60
2022-10-30T15:59:20.323Z,73.00
2022-10-30T16:02:26.684Z,73.00
2022-10-30T16:05:30.252Z,73.40
2022-10-30T16:08:44.578Z,74.00
2022-10-30T16:11:49.685Z,75.10
2022-10-30T16:14:52.762Z,75.00
2022-10-30T16:18:07.948Z,74.90
2022-10-30T16:21:15.184Z,75.40
2022-10-30T16:24:19.616Z,75.60
2022-10-30T16:27:24.184Z,76.00
2022-10-30T16:30:29.449Z,76.70
2022-10-30T16:33:34.450Z,76.90
2022-10-30T16:36:38.044Z,77.20
2022-10-30T16:39:42.612Z,77.70
2022-10-30T16:42:50.226Z,77.80
2022-10-30T16:45:53.961Z,78.10
2022-10-30T16:49:00.979Z,78.30
2022-10-30T16:52:06.017Z,78.60
2022-10-30T16:55:16.511Z,78.70
2022-10-30T16:58:21.819Z,79.00
2022-10-30T17:01:26.937Z,79.50
2022-10-30T17:04:30.803Z,80.20
2022-10-30T17:07:34.466Z,80.20
2022-10-30T17:10:44.719Z,80.20
2022-10-30T17:13:59.818Z,80.30
2022-10-30T17:17:02.843Z,80.20
2022-10-30T17:20:08.191Z,80.70
2022-10-30T17:23:18.941Z,80.90
2022-10-30T17:26:23.569Z,81.20
2022-10-30T17:29:45.421Z,81.50
2022-10-30T17:32:55.362Z,81.60
2022-10-30T17:35:58.432Z,81.60
2022-10-30T17:39:01.291Z,81.20
2022-10-30T17:42:05.652Z,81.20
2022-10-30T17:45:12.251Z,81.50
2022-10-30T17:48:16.883Z,82.10
2022-10-30T17:51:20.454Z,82.60
2022-10-30T17:54:23.882Z,82.90
2022-10-30T17:57:28.787Z,82.80
2022-10-30T18:00:31.665Z,83.00
2022-10-30T18:03:34.551Z,83.10
2022-10-30T18:06:37.653Z,83.20
2022-10-30T18:09:41.151Z,83.30
2022-10-30T18:12:45.723Z,83.60
2022-10-30T18:15:54.391Z,83.70
2022-10-30T18:18:58.680Z,83.70
2022-10-30T18:22:01.781Z,83.70
2022-10-30T18:25:11.980Z,84.20
2022-10-30T18:28:16.235Z,83.90
2022-10-30T18:31:21.095Z,84.30
2022-10-30T18:34:24.008Z,85.20
2022-10-30T18:37:26.853Z,84.40
2022-10-30T18:40:30.204Z,84.40
2022-10-30T18:43:34.481Z,84.30
2022-10-30T18:46:37.363Z,84.50
2022-10-30T18:49:40.228Z,84.80
2022-10-30T18:52:43.293Z,84.60
2022-10-30T18:55:49.544Z,85.00
2022-10-30T18:58:58.650Z,84.80
2022-10-30T19:02:04.834Z,84.60
2022-10-30T19:05:31.432Z,85.10
2022-10-30T19:08:34.307Z,85.00
2022-10-30T19:11:39.398Z,85.10
2022-10-30T19:14:45.265Z,85.20
2022-10-30T19:17:48.148Z,85.00
2022-10-30T19:21:03.740Z,85.50
2022-10-30T19:24:14.946Z,85.30
2022-10-30T19:27:18.069Z,85.60
2022-10-30T19:30:23.886Z,85.40
2022-10-30T19:33:26.770Z,85.20
2022-10-30T19:36:33.658Z,85.80
2022-10-30T19:39:36.751Z,85.80
2022-10-30T19:42:39.605Z,86.20
2022-10-30T19:45:43.886Z,86.70
2022-10-30T19:49:02.083Z,86.70
2022-10-30T19:52:05.087Z,86.30
2022-10-30T19:55:08.844Z,86.20
2022-10-30T19:58:14.437Z,86.30
2022-10-30T20:01:18.969Z,86.50
2022-10-30T20:04:21.984Z,86.60
2022-10-30T20:07:24.852Z,86.70
2022-10-30T20:10:27.772Z,86.40
2022-10-30T20:13:33.311Z,86.80
2022-10-30T20:16:37.996Z,87.10
2022-10-30T20:19:42.674Z,87.10
2022-10-30T20:22:45.718Z,87.00
2022-10-30T20:25:50.428Z,87.10
2022-10-30T20:28:54.340Z,86.80
2022-10-30T20:31:58.558Z,86.80
2022-10-30T20:35:01.440Z,86.80
2022-10-30T20:38:04.703Z,86.60
2022-10-30T20:41:08.240Z,86.50
2022-10-30T20:44:13.234Z,86.60
2022-10-30T20:47:17.584Z,86.90
2022-10-30T20:50:22.015Z,87.20
2022-10-30T20:53:25.417Z,87.30
2022-10-30T20:56:28.306Z,87.10
2022-10-30T20:59:31.219Z,86.80
2022-10-30T21:02:35.712Z,87.40
2022-10-30T21:05:43.725Z,87.50
2022-10-30T21:08:47.814Z,87.10
2022-10-30T21:11:50.686Z,88.10
2022-10-30T21:14:53.618Z,87.30
2022-10-30T21:17:58.332Z,87.30
2022-10-30T21:21:02.403Z,86.90
2022-10-30T21:24:05.507Z,87.30
2022-10-30T21:27:08.381Z,87.60
2022-10-30T21:30:12.182Z,87.90
2022-10-30T21:33:16.403Z,88.30
2022-10-30T21:36:20.857Z,89.10
2022-10-30T21:39:23.761Z,88.00
2022-10-30T21:45:34.427Z,87.90
2022-10-30T21:48:39.089Z,88.10
2022-10-30T21:51:42.232Z,88.10
2022-10-30T21:54:45.156Z,87.80
2022-10-30T21:57:48.296Z,88.10
2022-10-30T22:00:51.226Z,88.40
2022-10-30T22:03:55.646Z,88.60
2022-10-30T22:06:58.753Z,88.40
2022-10-30T22:10:01.644Z,88.70
2022-10-30T22:13:04.644Z,88.90
2022-10-30T22:16:11.409Z,88.90
2022-10-30T22:19:15.662Z,88.60
2022-10-30T22:22:18.519Z,88.70
2022-10-30T22:25:21.501Z,88.90
2022-10-30T22:28:24.480Z,89.20
2022-10-30T22:31:29.231Z,89.20
2022-10-30T22:34:33.578Z,88.60
2022-10-30T22:37:36.406Z,88.40
2022-10-30T22:40:39.841Z,88.50
2022-10-30T22:43:44.118Z,88.70
2022-10-30T22:46:47.299Z,88.40
2022-10-30T22:49:51.535Z,88.50
2022-10-30T22:52:54.443Z,88.40
2022-10-30T22:55:57.397Z,88.30
2022-10-30T22:59:02.813Z,88.00
2022-10-30T23:02:05.781Z,88.40
2022-10-30T23:05:10.294Z,88.40
2022-10-30T23:08:13.378Z,88.50
2022-10-30T23:11:16.750Z,88.90
2022-10-30T23:14:19.943Z,88.90
2022-10-30T23:17:22.800Z,88.60
2022-10-30T23:20:27.043Z,88.70
2022-10-30T23:23:30.035Z,89.10
2022-10-30T23:26:35.470Z,89.20
2022-10-30T23:29:38.346Z,89.40
2022-10-30T23:32:41.399Z,89.20
2022-10-30T23:35:45.844Z,89.20
2022-10-30T23:38:52.834Z,89.50
2022-10-30T23:41:55.690Z,89.50
2022-10-30T23:44:58.895Z,89.30
2022-10-30T23:48:02.608Z,89.40
2022-10-30T23:51:09.037Z,89.70
2022-10-30T23:54:12.158Z,89.60
2022-10-30T23:57:15.226Z,89.50
